sensor_id;sensor_type;location;lat;lon;timestamp;pressure;altitude;pressure_sealevel;temperature;humidity
50636;BME280;36598;46.054;11.130;2023-04-27T00:02:06;99202.69;;;11.98;58.59
50636;BME280;36598;46.054;11.130;2023-04-27T00:04:31;99194.97;;;11.86;58.80
50636;BME280;36598;46.054;11.130;2023-04-27T00:06:57;99200.72;;;12.18;58.23
50636;BME280;36598;46.054;11.130;2023-04-27T00:09:22;99194.75;;;12.20;58.49
50636;BME280;36598;46.054;11.130;2023-04-27T00:11:47;99188.97;;;12.11;58.53
50636;BME280;36598;46.054;11.130;2023-04-27T00:14:13;99180.38;;;11.82;60.12
50636;BME280;36598;46.054;11.130;2023-04-27T00:16:38;99179.25;;;11.79;60.67
50636;BME280;36598;46.054;11.130;2023-04-27T00:19:03;99182.78;;;12.03;59.59
50636;BME280;36598;46.054;11.130;2023-04-27T00:21:29;99182.06;;;11.99;60.07
50636;BME280;36598;46.054;11.130;2023-04-27T00:23:54;99190.63;;;12.08;59.33
50636;BME280;36598;46.054;11.130;2023-04-27T00:26:19;99198.16;;;12.27;59.07
50636;BME280;36598;46.054;11.130;2023-04-27T00:28:46;99207.94;;;12.36;58.84
50636;BME280;36598;46.054;11.130;2023-04-27T00:31:11;99201.91;;;11.97;60.37
50636;BME280;36598;46.054;11.130;2023-04-27T00:33:37;99199.28;;;12.10;59.89
50636;BME280;36598;46.054;11.130;2023-04-27T00:36:02;99199.41;;;11.83;60.35
50636;BME280;36598;46.054;11.130;2023-04-27T00:38:28;99210.94;;;12.01;59.48
50636;BME280;36598;46.054;11.130;2023-04-27T00:41:02;99209.91;;;12.15;59.15
50636;BME280;36598;46.054;11.130;2023-04-27T00:43:28;99205.88;;;12.40;58.66
50636;BME280;36598;46.054;11.130;2023-04-27T00:45:53;99201.84;;;12.01;60.25
50636;BME280;36598;46.054;11.130;2023-04-27T00:48:18;99201.34;;;11.86;60.01
50636;BME280;36598;46.054;11.130;2023-04-27T00:50:44;99201.13;;;11.97;59.44
50636;BME280;36598;46.054;11.130;2023-04-27T00:53:09;99203.00;;;12.23;58.80
50636;BME280;36598;46.054;11.130;2023-04-27T00:55:35;99205.94;;;12.16;59.86
50636;BME280;36598;46.054;11.130;2023-04-27T00:58:00;99205.91;;;11.96;59.99
50636;BME280;36598;46.054;11.130;2023-04-27T01:00:25;99207.34;;;12.05;60.05
50636;BME280;36598;46.054;11.130;2023-04-27T01:02:51;99200.13;;;12.07;59.95
50636;BME280;36598;46.054;11.130;2023-04-27T01:05:17;99200.63;;;12.02;59.84
50636;BME280;36598;46.054;11.130;2023-04-27T01:07:42;99202.34;;;11.96;60.22
50636;BME280;36598;46.054;11.130;2023-04-27T01:10:08;99203.75;;;11.81;60.83
50636;BME280;36598;46.054;11.130;2023-04-27T01:12:33;99197.75;;;12.09;60.00
50636;BME280;36598;46.054;11.130;2023-04-27T01:14:58;99188.88;;;11.94;60.04
50636;BME280;36598;46.054;11.130;2023-04-27T01:17:24;99188.41;;;11.76;61.14
50636;BME280;36598;46.054;11.130;2023-04-27T01:19:49;99200.53;;;11.86;61.28
50636;BME280;36598;46.054;11.130;2023-04-27T01:22:15;99205.84;;;12.00;60.74
50636;BME280;36598;46.054;11.130;2023-04-27T01:24:41;99209.69;;;12.06;61.10
50636;BME280;36598;46.054;11.130;2023-04-27T01:27:06;99205.16;;;11.45;62.74
50636;BME280;36598;46.054;11.130;2023-04-27T01:29:31;99203.97;;;11.19;63.60
50636;BME280;36598;46.054;11.130;2023-04-27T01:31:57;99198.22;;;11.07;63.83
50636;BME280;36598;46.054;11.130;2023-04-27T01:34:22;99215.03;;;11.46;62.66
50636;BME280;36598;46.054;11.130;2023-04-27T01:36:47;99211.84;;;11.71;61.63
50636;BME280;36598;46.054;11.130;2023-04-27T01:39:13;99213.28;;;11.79;61.86
50636;BME280;36598;46.054;11.130;2023-04-27T01:41:38;99214.25;;;11.46;62.52
50636;BME280;36598;46.054;11.130;2023-04-27T01:44:03;99207.50;;;11.47;62.27
50636;BME280;36598;46.054;11.130;2023-04-27T01:46:29;99221.47;;;11.63;62.06
50636;BME280;36598;46.054;11.130;2023-04-27T01:48:54;99225.56;;;11.55;62.41
50636;BME280;36598;46.054;11.130;2023-04-27T01:51:20;99223.53;;;11.59;62.16
50636;BME280;36598;46.054;11.130;2023-04-27T01:53:45;99205.94;;;11.69;62.13
50636;BME280;36598;46.054;11.130;2023-04-27T01:56:10;99205.81;;;11.53;61.88
50636;BME280;36598;46.054;11.130;2023-04-27T01:58:36;99214.88;;;11.57;61.95
50636;BME280;36598;46.054;11.130;2023-04-27T02:01:01;99222.94;;;11.71;61.65
50636;BME280;36598;46.054;11.130;2023-04-27T02:03:27;99228.19;;;11.39;62.60
50636;BME280;36598;46.054;11.130;2023-04-27T02:05:52;99229.50;;;11.03;64.13
50636;BME280;36598;46.054;11.130;2023-04-27T02:08:18;99226.91;;;11.20;64.10
50636;BME280;36598;46.054;11.130;2023-04-27T02:10:43;99215.41;;;11.21;63.85
50636;BME280;36598;46.054;11.130;2023-04-27T02:13:08;99217.03;;;11.19;63.87
50636;BME280;36598;46.054;11.130;2023-04-27T02:15:34;99220.06;;;11.28;63.58
50636;BME280;36598;46.054;11.130;2023-04-27T02:17:59;99220.94;;;11.48;63.06
50636;BME280;36598;46.054;11.130;2023-04-27T02:20:25;99229.84;;;11.36;64.03
50636;BME280;36598;46.054;11.130;2023-04-27T02:22:50;99231.25;;;10.94;64.36
50636;BME280;36598;46.054;11.130;2023-04-27T02:25:17;99234.81;;;10.91;64.32
50636;BME280;36598;46.054;11.130;2023-04-27T02:27:43;99240.97;;;10.75;64.78
50636;BME280;36598;46.054;11.130;2023-04-27T02:30:08;99244.41;;;11.13;63.90
50636;BME280;36598;46.054;11.130;2023-04-27T02:32:34;99258.72;;;11.08;63.95
50636;BME280;36598;46.054;11.130;2023-04-27T02:34:59;99255.47;;;11.13;63.86
50636;BME280;36598;46.054;11.130;2023-04-27T02:37:25;99260.09;;;10.96;64.11
50636;BME280;36598;46.054;11.130;2023-04-27T02:39:50;99261.69;;;10.63;64.94
50636;BME280;36598;46.054;11.130;2023-04-27T02:42:16;99263.34;;;10.88;64.36
50636;BME280;36598;46.054;11.130;2023-04-27T02:44:41;99262.78;;;11.31;63.30
50636;BME280;36598;46.054;11.130;2023-04-27T02:47:07;99271.91;;;11.27;63.55
50636;BME280;36598;46.054;11.130;2023-04-27T02:49:32;99280.19;;;11.31;63.73
50636;BME280;36598;46.054;11.130;2023-04-27T02:51:57;99271.00;;;11.34;63.71
50636;BME280;36598;46.054;11.130;2023-04-27T02:54:23;99270.00;;;11.21;64.10
50636;BME280;36598;46.054;11.130;2023-04-27T02:56:48;99277.75;;;11.06;63.59
50636;BME280;36598;46.054;11.130;2023-04-27T02:59:13;99275.50;;;10.97;64.20
50636;BME280;36598;46.054;11.130;2023-04-27T03:01:38;99273.94;;;10.96;64.36
50636;BME280;36598;46.054;11.130;2023-04-27T03:04:04;99275.28;;;11.12;63.79
50636;BME280;36598;46.054;11.130;2023-04-27T03:06:29;99276.69;;;10.96;64.62
50636;BME280;36598;46.054;11.130;2023-04-27T03:08:55;99281.59;;;11.12;64.33
50636;BME280;36598;46.054;11.130;2023-04-27T03:11:20;99284.41;;;11.09;64.00
50636;BME280;36598;46.054;11.130;2023-04-27T03:13:45;99283.59;;;11.39;63.58
50636;BME280;36598;46.054;11.130;2023-04-27T03:16:10;99276.31;;;11.52;62.78
50636;BME280;36598;46.054;11.130;2023-04-27T03:18:36;99284.34;;;11.43;63.09
50636;BME280;36598;46.054;11.130;2023-04-27T03:21:08;99288.03;;;11.06;64.66
50636;BME280;36598;46.054;11.130;2023-04-27T03:23:34;99291.47;;;11.13;65.01
50636;BME280;36598;46.054;11.130;2023-04-27T03:25:59;99294.81;;;11.01;65.64
50636;BME280;36598;46.054;11.130;2023-04-27T03:28:25;99292.19;;;10.90;65.93
50636;BME280;36598;46.054;11.130;2023-04-27T03:30:50;99292.94;;;11.21;64.86
50636;BME280;36598;46.054;11.130;2023-04-27T03:33:16;99301.81;;;11.40;64.37
50636;BME280;36598;46.054;11.130;2023-04-27T03:35:42;99302.19;;;11.11;65.05
50636;BME280;36598;46.054;11.130;2023-04-27T03:38:07;99299.91;;;11.06;65.35
50636;BME280;36598;46.054;11.130;2023-04-27T03:40:32;99306.75;;;11.25;64.61
50636;BME280;36598;46.054;11.130;2023-04-27T03:42:58;99304.38;;;11.27;64.69
50636;BME280;36598;46.054;11.130;2023-04-27T03:45:23;99301.69;;;11.47;63.82
50636;BME280;36598;46.054;11.130;2023-04-27T03:47:48;99311.78;;;11.34;64.33
50636;BME280;36598;46.054;11.130;2023-04-27T03:50:14;99304.31;;;11.31;64.24
50636;BME280;36598;46.054;11.130;2023-04-27T03:52:40;99306.53;;;11.12;65.25
50636;BME280;36598;46.054;11.130;2023-04-27T03:55:05;99313.97;;;11.19;65.22
50636;BME280;36598;46.054;11.130;2023-04-27T03:57:31;99306.06;;;11.17;65.45
50636;BME280;36598;46.054;11.130;2023-04-27T03:59:56;99306.19;;;11.10;65.28
50636;BME280;36598;46.054;11.130;2023-04-27T04:02:21;99302.19;;;10.81;66.62
50636;BME280;36598;46.054;11.130;2023-04-27T04:04:47;99298.78;;;11.00;66.19
50636;BME280;36598;46.054;11.130;2023-04-27T04:07:13;99296.00;;;11.00;65.85
50636;BME280;36598;46.054;11.130;2023-04-27T04:09:38;99292.75;;;10.74;67.26
50636;BME280;36598;46.054;11.130;2023-04-27T04:12:03;99285.94;;;10.48;68.23
50636;BME280;36598;46.054;11.130;2023-04-27T04:14:29;99285.69;;;10.70;66.88
50636;BME280;36598;46.054;11.130;2023-04-27T04:16:54;99291.09;;;10.84;66.13
50636;BME280;36598;46.054;11.130;2023-04-27T04:19:19;99284.91;;;10.35;67.29
50636;BME280;36598;46.054;11.130;2023-04-27T04:21:45;99286.78;;;10.45;67.76
50636;BME280;36598;46.054;11.130;2023-04-27T04:24:10;99298.00;;;10.65;67.31
50636;BME280;36598;46.054;11.130;2023-04-27T04:26:35;99305.03;;;10.73;67.32
50636;BME280;36598;46.054;11.130;2023-04-27T04:29:01;99300.25;;;10.40;68.78
50636;BME280;36598;46.054;11.130;2023-04-27T04:31:27;99292.22;;;10.52;68.88
50636;BME280;36598;46.054;11.130;2023-04-27T04:33:53;99302.41;;;10.63;68.34
50636;BME280;36598;46.054;11.130;2023-04-27T04:36:18;99296.38;;;11.02;66.90
50636;BME280;36598;46.054;11.130;2023-04-27T04:38:44;99308.59;;;11.04;66.65
50636;BME280;36598;46.054;11.130;2023-04-27T04:41:09;99308.47;;;11.15;66.33
50636;BME280;36598;46.054;11.130;2023-04-27T04:43:34;99311.88;;;10.96;66.01
50636;BME280;36598;46.054;11.130;2023-04-27T04:46:00;99321.59;;;11.11;66.08
50636;BME280;36598;46.054;11.130;2023-04-27T04:48:25;99331.44;;;11.12;66.56
50636;BME280;36598;46.054;11.130;2023-04-27T04:50:51;99330.75;;;11.04;66.52
50636;BME280;36598;46.054;11.130;2023-04-27T04:53:16;99338.19;;;11.42;65.49
50636;BME280;36598;46.054;11.130;2023-04-27T04:55:42;99350.09;;;11.08;66.36
50636;BME280;36598;46.054;11.130;2023-04-27T04:58:07;99348.06;;;11.12;66.43
50636;BME280;36598;46.054;11.130;2023-04-27T05:00:32;99352.38;;;10.83;67.05
50636;BME280;36598;46.054;11.130;2023-04-27T05:02:58;99360.59;;;10.52;68.28
50636;BME280;36598;46.054;11.130;2023-04-27T05:05:23;99367.41;;;10.82;67.43
50636;BME280;36598;46.054;11.130;2023-04-27T05:07:48;99373.72;;;10.82;67.69
50636;BME280;36598;46.054;11.130;2023-04-27T05:10:13;99369.31;;;10.50;68.68
50636;BME280;36598;46.054;11.130;2023-04-27T05:12:39;99364.94;;;10.91;67.58
50636;BME280;36598;46.054;11.130;2023-04-27T05:15:04;99376.16;;;10.76;68.08
50636;BME280;36598;46.054;11.130;2023-04-27T05:17:30;99371.75;;;11.17;66.69
50636;BME280;36598;46.054;11.130;2023-04-27T05:19:55;99380.47;;;11.46;65.51
50636;BME280;36598;46.054;11.130;2023-04-27T05:22:20;99384.28;;;11.28;66.03
50636;BME280;36598;46.054;11.130;2023-04-27T05:24:46;99383.72;;;11.41;65.48
50636;BME280;36598;46.054;11.130;2023-04-27T05:27:11;99378.63;;;11.66;64.52
50636;BME280;36598;46.054;11.130;2023-04-27T05:29:36;99386.28;;;11.55;64.97
50636;BME280;36598;46.054;11.130;2023-04-27T05:32:02;99380.22;;;11.94;63.90
50636;BME280;36598;46.054;11.130;2023-04-27T05:34:27;99382.34;;;12.10;62.81
50636;BME280;36598;46.054;11.130;2023-04-27T05:36:52;99385.50;;;12.59;61.85
50636;BME280;36598;46.054;11.130;2023-04-27T05:39:18;99388.34;;;12.99;60.50
50636;BME280;36598;46.054;11.130;2023-04-27T05:41:43;99389.25;;;12.92;60.34
50636;BME280;36598;46.054;11.130;2023-04-27T05:44:08;99379.34;;;13.51;57.77
50636;BME280;36598;46.054;11.130;2023-04-27T05:46:33;99382.69;;;13.62;57.80
50636;BME280;36598;46.054;11.130;2023-04-27T05:48:59;99390.25;;;12.59;61.14
50636;BME280;36598;46.054;11.130;2023-04-27T05:51:24;99391.44;;;11.87;62.91
50636;BME280;36598;46.054;11.130;2023-04-27T05:53:49;99392.72;;;12.06;62.23
50636;BME280;36598;46.054;11.130;2023-04-27T05:56:15;99381.94;;;12.35;61.21
50636;BME280;36598;46.054;11.130;2023-04-27T05:58:40;99370.66;;;12.89;60.06
50636;BME280;36598;46.054;11.130;2023-04-27T06:01:06;99374.00;;;13.00;59.18
50636;BME280;36598;46.054;11.130;2023-04-27T06:03:31;99371.28;;;12.97;58.77
50636;BME280;36598;46.054;11.130;2023-04-27T06:05:57;99373.00;;;12.91;59.43
50636;BME280;36598;46.054;11.130;2023-04-27T06:08:23;99370.94;;;12.95;59.26
50636;BME280;36598;46.054;11.130;2023-04-27T06:10:49;99374.94;;;13.14;58.53
50636;BME280;36598;46.054;11.130;2023-04-27T06:13:15;99378.59;;;13.31;58.55
50636;BME280;36598;46.054;11.130;2023-04-27T06:15:41;99374.44;;;13.19;58.87
50636;BME280;36598;46.054;11.130;2023-04-27T06:18:06;99375.16;;;13.43;58.33
50636;BME280;36598;46.054;11.130;2023-04-27T06:20:31;99378.31;;;14.14;56.53
50636;BME280;36598;46.054;11.130;2023-04-27T06:22:57;99374.06;;;14.58;55.29
50636;BME280;36598;46.054;11.130;2023-04-27T06:25:22;99376.47;;;13.91;56.33
50636;BME280;36598;46.054;11.130;2023-04-27T06:27:47;99375.84;;;13.83;56.43
50636;BME280;36598;46.054;11.130;2023-04-27T06:30:13;99372.91;;;15.01;53.03
50636;BME280;36598;46.054;11.130;2023-04-27T06:32:38;99378.22;;;15.37;52.05
50636;BME280;36598;46.054;11.130;2023-04-27T06:35:04;99370.44;;;15.58;50.84
50636;BME280;36598;46.054;11.130;2023-04-27T06:37:29;99373.94;;;16.25;48.87
50636;BME280;36598;46.054;11.130;2023-04-27T06:39:54;99371.06;;;16.64;47.78
50636;BME280;36598;46.054;11.130;2023-04-27T06:42:20;99368.78;;;16.71;47.92
50636;BME280;36598;46.054;11.130;2023-04-27T06:44:45;99373.16;;;16.12;48.99
50636;BME280;36598;46.054;11.130;2023-04-27T06:47:10;99381.34;;;16.67;47.82
50636;BME280;36598;46.054;11.130;2023-04-27T06:49:36;99379.31;;;16.07;49.41
50636;BME280;36598;46.054;11.130;2023-04-27T06:52:01;99388.78;;;16.22;49.34
50636;BME280;36598;46.054;11.130;2023-04-27T06:54:27;99383.78;;;16.05;49.72
50636;BME280;36598;46.054;11.130;2023-04-27T06:56:52;99380.50;;;17.36;46.93
50636;BME280;36598;46.054;11.130;2023-04-27T06:59:18;99373.50;;;18.02;44.77
50636;BME280;36598;46.054;11.130;2023-04-27T07:01:44;99376.44;;;17.37;46.19
50636;BME280;36598;46.054;11.130;2023-04-27T07:04:10;99372.91;;;17.45;45.45
50636;BME280;36598;46.054;11.130;2023-04-27T07:06:35;99380.03;;;17.68;44.80
50636;BME280;36598;46.054;11.130;2023-04-27T07:09:00;99377.59;;;16.83;47.41
50636;BME280;36598;46.054;11.130;2023-04-27T07:11:26;99378.44;;;17.58;44.82
50636;BME280;36598;46.054;11.130;2023-04-27T07:13:52;99375.34;;;17.87;44.99
50636;BME280;36598;46.054;11.130;2023-04-27T07:16:17;99373.25;;;18.77;42.87
50636;BME280;36598;46.054;11.130;2023-04-27T07:18:43;99375.47;;;17.84;44.39
50636;BME280;36598;46.054;11.130;2023-04-27T07:21:08;99364.81;;;19.05;42.16
50636;BME280;36598;46.054;11.130;2023-04-27T07:23:34;99358.81;;;19.40;41.57
50636;BME280;36598;46.054;11.130;2023-04-27T07:25:59;99365.13;;;19.16;41.46
50636;BME280;36598;46.054;11.130;2023-04-27T07:28:26;99366.03;;;19.22;42.05
50636;BME280;36598;46.054;11.130;2023-04-27T07:30:52;99361.28;;;19.74;40.31
50636;BME280;36598;46.054;11.130;2023-04-27T07:33:18;99357.38;;;20.05;39.45
50636;BME280;36598;46.054;11.130;2023-04-27T07:35:44;99357.53;;;19.59;39.76
50636;BME280;36598;46.054;11.130;2023-04-27T07:38:09;99348.75;;;19.06;40.67
50636;BME280;36598;46.054;11.130;2023-04-27T07:40:34;99351.00;;;20.29;38.72
50636;BME280;36598;46.054;11.130;2023-04-27T07:43:00;99357.97;;;20.81;38.41
50636;BME280;36598;46.054;11.130;2023-04-27T07:45:26;99350.47;;;21.02;36.40
50636;BME280;36598;46.054;11.130;2023-04-27T07:47:56;99349.81;;;20.44;36.85
50636;BME280;36598;46.054;11.130;2023-04-27T07:50:22;99342.38;;;21.63;36.23
50636;BME280;36598;46.054;11.130;2023-04-27T07:52:50;99348.28;;;21.80;35.08
50636;BME280;36598;46.054;11.130;2023-04-27T07:55:15;99358.88;;;21.56;35.98
50636;BME280;36598;46.054;11.130;2023-04-27T07:57:41;99350.66;;;21.87;35.57
50636;BME280;36598;46.054;11.130;2023-04-27T08:00:06;99345.94;;;22.49;33.38
50636;BME280;36598;46.054;11.130;2023-04-27T08:02:33;99345.34;;;23.06;33.01
50636;BME280;36598;46.054;11.130;2023-04-27T08:04:59;99346.28;;;23.23;32.49
50636;BME280;36598;46.054;11.130;2023-04-27T08:07:26;99343.63;;;23.40;31.78
50636;BME280;36598;46.054;11.130;2023-04-27T08:09:51;99340.59;;;23.18;31.88
50636;BME280;36598;46.054;11.130;2023-04-27T08:12:17;99341.53;;;23.09;32.52
50636;BME280;36598;46.054;11.130;2023-04-27T08:14:43;99340.16;;;22.79;33.33
50636;BME280;36598;46.054;11.130;2023-04-27T08:17:08;99339.03;;;23.43;32.60
50636;BME280;36598;46.054;11.130;2023-04-27T08:19:34;99331.47;;;23.60;32.33
50636;BME280;36598;46.054;11.130;2023-04-27T08:22:00;99334.09;;;22.45;33.29
50636;BME280;36598;46.054;11.130;2023-04-27T08:24:25;99326.81;;;23.57;32.25
50636;BME280;36598;46.054;11.130;2023-04-27T08:26:50;99329.22;;;22.66;33.37
50636;BME280;36598;46.054;11.130;2023-04-27T08:29:16;99336.81;;;22.80;32.60
50636;BME280;36598;46.054;11.130;2023-04-27T08:31:42;99325.81;;;23.92;31.60
50636;BME280;36598;46.054;11.130;2023-04-27T08:34:07;99324.16;;;23.74;31.65
50636;BME280;36598;46.054;11.130;2023-04-27T08:36:33;99323.56;;;23.12;32.08
50636;BME280;36598;46.054;11.130;2023-04-27T08:38:59;99321.00;;;23.35;31.66
50636;BME280;36598;46.054;11.130;2023-04-27T08:41:24;99317.44;;;23.71;31.76
50636;BME280;36598;46.054;11.130;2023-04-27T08:43:50;99320.19;;;23.08;32.63
50636;BME280;36598;46.054;11.130;2023-04-27T08:46:18;99308.44;;;23.67;32.48
50636;BME280;36598;46.054;11.130;2023-04-27T08:48:45;99313.63;;;22.91;32.76
50636;BME280;36598;46.054;11.130;2023-04-27T08:51:11;99314.50;;;22.36;32.54
50636;BME280;36598;46.054;11.130;2023-04-27T08:53:38;99311.34;;;23.47;31.16
50636;BME280;36598;46.054;11.130;2023-04-27T08:56:10;99308.84;;;23.86;31.28
50636;BME280;36598;46.054;11.130;2023-04-27T08:58:36;99316.94;;;24.59;30.37
50636;BME280;36598;46.054;11.130;2023-04-27T09:01:05;99307.84;;;24.38;30.30
50636;BME280;36598;46.054;11.130;2023-04-27T09:03:33;99302.13;;;24.27;30.45
50636;BME280;36598;46.054;11.130;2023-04-27T09:06:02;99301.38;;;25.03;29.48
50636;BME280;36598;46.054;11.130;2023-04-27T09:08:27;99303.28;;;24.03;30.08
50636;BME280;36598;46.054;11.130;2023-04-27T09:10:53;99302.22;;;24.49;29.55
50636;BME280;36598;46.054;11.130;2023-04-27T09:13:21;99294.25;;;24.42;29.64
50636;BME280;36598;46.054;11.130;2023-04-27T09:15:47;99298.19;;;23.12;30.30
50636;BME280;36598;46.054;11.130;2023-04-27T09:18:17;99290.41;;;24.02;29.75
50636;BME280;36598;46.054;11.130;2023-04-27T09:20:46;99287.88;;;24.58;29.03
50636;BME280;36598;46.054;11.130;2023-04-27T09:23:26;99287.81;;;24.41;28.44
50636;BME280;36598;46.054;11.130;2023-04-27T09:25:54;99294.09;;;24.73;27.49
50636;BME280;36598;46.054;11.130;2023-04-27T09:28:20;99285.84;;;22.63;28.96
50636;BME280;36598;46.054;11.130;2023-04-27T09:30:52;99279.50;;;23.78;28.13
50636;BME280;36598;46.054;11.130;2023-04-27T09:33:21;99278.41;;;23.12;28.77
50636;BME280;36598;46.054;11.130;2023-04-27T09:35:47;99277.72;;;24.29;27.48
50636;BME280;36598;46.054;11.130;2023-04-27T09:38:12;99269.06;;;23.64;27.57
50636;BME280;36598;46.054;11.130;2023-04-27T09:40:38;99272.50;;;22.38;29.36
50636;BME280;36598;46.054;11.130;2023-04-27T09:43:05;99261.78;;;23.14;29.19
50636;BME280;36598;46.054;11.130;2023-04-27T09:45:32;99256.31;;;23.68;28.80
50636;BME280;36598;46.054;11.130;2023-04-27T09:47:57;99260.97;;;23.40;28.27
50636;BME280;36598;46.054;11.130;2023-04-27T09:50:22;99255.34;;;23.45;28.56
50636;BME280;36598;46.054;11.130;2023-04-27T09:52:49;99245.28;;;23.07;29.07
50636;BME280;36598;46.054;11.130;2023-04-27T09:55:16;99253.28;;;23.46;28.42
50636;BME280;36598;46.054;11.130;2023-04-27T10:03:02;99238.94;;;21.99;30.63
50636;BME280;36598;46.054;11.130;2023-04-27T10:05:35;99230.59;;;21.34;31.83
50636;BME280;36598;46.054;11.130;2023-04-27T10:08:02;99226.53;;;22.11;31.06
50636;BME280;36598;46.054;11.130;2023-04-27T10:10:29;99219.31;;;22.51;31.08
50636;BME280;36598;46.054;11.130;2023-04-27T10:12:55;99224.56;;;21.77;31.58
50636;BME280;36598;46.054;11.130;2023-04-27T10:15:24;99212.94;;;21.89;31.96
50636;BME280;36598;46.054;11.130;2023-04-27T10:17:50;99210.09;;;22.77;30.57
50636;BME280;36598;46.054;11.130;2023-04-27T10:20:27;99210.94;;;23.09;29.78
50636;BME280;36598;46.054;11.130;2023-04-27T10:22:52;99209.44;;;22.87;29.83
50636;BME280;36598;46.054;11.130;2023-04-27T10:25:19;99201.81;;;23.25;29.34
50636;BME280;36598;46.054;11.130;2023-04-27T10:27:54;99196.88;;;23.14;29.34
50636;BME280;36598;46.054;11.130;2023-04-27T10:30:22;99193.50;;;23.47;28.84
50636;BME280;36598;46.054;11.130;2023-04-27T10:32:51;99196.66;;;21.79;30.21
50636;BME280;36598;46.054;11.130;2023-04-27T10:35:17;99186.00;;;22.49;29.58
50636;BME280;36598;46.054;11.130;2023-04-27T10:37:43;99190.19;;;21.93;30.68
50636;BME280;36598;46.054;11.130;2023-04-27T10:40:10;99186.66;;;22.65;29.59
50636;BME280;36598;46.054;11.130;2023-04-27T10:42:39;99178.28;;;23.02;29.37
50636;BME280;36598;46.054;11.130;2023-04-27T10:45:04;99178.50;;;22.00;29.88
50636;BME280;36598;46.054;11.130;2023-04-27T10:47:49;99173.16;;;21.11;30.84
50636;BME280;36598;46.054;11.130;2023-04-27T10:50:19;99174.72;;;21.12;31.29
50636;BME280;36598;46.054;11.130;2023-04-27T10:52:46;99168.34;;;21.88;30.05
50636;BME280;36598;46.054;11.130;2023-04-27T10:55:15;99171.75;;;22.12;28.91
50636;BME280;36598;46.054;11.130;2023-04-27T10:57:45;99161.50;;;22.35;29.22
50636;BME280;36598;46.054;11.130;2023-04-27T11:00:12;99165.47;;;22.75;29.00
50636;BME280;36598;46.054;11.130;2023-04-27T11:02:38;99162.97;;;22.57;29.08
50636;BME280;36598;46.054;11.130;2023-04-27T11:05:15;99160.00;;;21.93;29.71
50636;BME280;36598;46.054;11.130;2023-04-27T11:07:41;99157.81;;;22.23;29.02
50636;BME280;36598;46.054;11.130;2023-04-27T11:10:07;99150.94;;;22.30;29.58
50636;BME280;36598;46.054;11.130;2023-04-27T11:12:32;99144.53;;;22.30;28.89
50636;BME280;36598;46.054;11.130;2023-04-27T11:14:58;99143.16;;;22.45;28.37
50636;BME280;36598;46.054;11.130;2023-04-27T11:17:28;99138.50;;;22.16;28.81
50636;BME280;36598;46.054;11.130;2023-04-27T11:19:54;99141.44;;;22.54;28.72
50636;BME280;36598;46.054;11.130;2023-04-27T11:22:20;99140.50;;;22.62;29.06
50636;BME280;36598;46.054;11.130;2023-04-27T11:24:48;99136.13;;;22.61;28.93
50636;BME280;36598;46.054;11.130;2023-04-27T11:27:14;99131.31;;;21.95;29.89
50636;BME280;36598;46.054;11.130;2023-04-27T11:29:39;99136.91;;;22.36;29.06
50636;BME280;36598;46.054;11.130;2023-04-27T11:32:05;99120.69;;;22.31;28.24
50636;BME280;36598;46.054;11.130;2023-04-27T11:34:31;99122.50;;;22.08;28.60
50636;BME280;36598;46.054;11.130;2023-04-27T11:37:04;99111.22;;;22.08;28.66
50636;BME280;36598;46.054;11.130;2023-04-27T11:39:36;99117.31;;;22.27;29.07
50636;BME280;36598;46.054;11.130;2023-04-27T11:44:50;99118.97;;;21.92;28.58
50636;BME280;36598;46.054;11.130;2023-04-27T11:47:16;99111.03;;;21.70;29.35
50636;BME280;36598;46.054;11.130;2023-04-27T11:49:45;99103.53;;;22.29;28.63
50636;BME280;36598;46.054;11.130;2023-04-27T11:52:10;99099.75;;;22.37;28.38
50636;BME280;36598;46.054;11.130;2023-04-27T11:54:36;99101.47;;;22.55;27.84
50636;BME280;36598;46.054;11.130;2023-04-27T11:57:04;99097.78;;;22.17;28.48
50636;BME280;36598;46.054;11.130;2023-04-27T11:59:30;99092.69;;;22.21;28.34
50636;BME280;36598;46.054;11.130;2023-04-27T12:01:55;99095.94;;;22.66;27.86
50636;BME280;36598;46.054;11.130;2023-04-27T12:04:21;99095.56;;;22.53;28.12
50636;BME280;36598;46.054;11.130;2023-04-27T12:06:46;99088.03;;;22.76;27.84
50636;BME280;36598;46.054;11.130;2023-04-27T12:09:11;99085.53;;;22.52;28.05
50636;BME280;36598;46.054;11.130;2023-04-27T12:11:37;99086.44;;;22.69;28.05
50636;BME280;36598;46.054;11.130;2023-04-27T12:14:02;99085.00;;;22.80;28.00
50636;BME280;36598;46.054;11.130;2023-04-27T12:16:28;99085.03;;;22.85;28.32
50636;BME280;36598;46.054;11.130;2023-04-27T12:18:53;99090.91;;;22.82;27.13
50636;BME280;36598;46.054;11.130;2023-04-27T12:21:18;99082.75;;;22.89;27.96
50636;BME280;36598;46.054;11.130;2023-04-27T12:23:44;99085.16;;;22.39;27.84
50636;BME280;36598;46.054;11.130;2023-04-27T12:26:10;99083.00;;;22.02;28.30
50636;BME280;36598;46.054;11.130;2023-04-27T12:28:35;99092.31;;;22.34;28.01
50636;BME280;36598;46.054;11.130;2023-04-27T12:31:04;99082.66;;;22.78;27.55
50636;BME280;36598;46.054;11.130;2023-04-27T12:33:30;99082.91;;;23.06;26.76
50636;BME280;36598;46.054;11.130;2023-04-27T12:35:56;99085.38;;;22.35;27.68
50636;BME280;36598;46.054;11.130;2023-04-27T12:38:21;99090.59;;;22.16;27.43
50636;BME280;36598;46.054;11.130;2023-04-27T12:40:49;99092.91;;;22.18;27.61
50636;BME280;36598;46.054;11.130;2023-04-27T12:43:15;99080.06;;;21.91;27.79
50636;BME280;36598;46.054;11.130;2023-04-27T12:45:40;99086.34;;;21.60;27.85
50636;BME280;36598;46.054;11.130;2023-04-27T12:48:06;99078.75;;;22.12;27.71
50636;BME280;36598;46.054;11.130;2023-04-27T12:50:31;99084.53;;;22.87;27.08
50636;BME280;36598;46.054;11.130;2023-04-27T12:52:56;99082.25;;;22.28;27.12